sensor_id;sensor_type;location;lat;lon;timestamp;pressure;altitude;pressure_sealevel;temperature;humidity
22550;BME280;11441;57.164;-2.120;2023-02-24T00:01:49;100512.84;;;8.92;100.00
22550;BME280;11441;57.164;-2.120;2023-02-24T00:04:36;100505.13;;;8.81;100.00
22550;BME280;11441;57.164;-2.120;2023-02-24T00:07:07;100504.75;;;8.83;100.00
22550;BME280;11441;57.164;-2.120;2023-02-24T00:09:34;100511.97;;;8.87;100.00
22550;BME280;11441;57.164;-2.120;2023-02-24T00:12:05;100529.22;;;8.88;100.00
22550;BME280;11441;57.164;-2.120;2023-02-24T00:14:36;100524.72;;;8.67;100.00
22550;BME280;11441;57.164;-2.120;2023-02-24T00:17:04;100532.28;;;8.58;100.00
22550;BME280;11441;57.164;-2.120;2023-02-24T00:19:53;100534.13;;;8.54;100.00
22550;BME280;11441;57.164;-2.120;2023-02-24T00:22:20;100550.97;;;7.70;100.00
22550;BME280;11441;57.164;-2.120;2023-02-24T00:24:47;100544.09;;;7.30;100.00
22550;BME280;11441;57.164;-2.120;2023-02-24T00:27:14;100551.38;;;7.05;100.00
22550;BME280;11441;57.164;-2.120;2023-02-24T00:29:44;100553.25;;;6.92;100.00
22550;BME280;11441;57.164;-2.120;2023-02-24T00:32:11;100540.97;;;7.20;100.00
22550;BME280;11441;57.164;-2.120;2023-02-24T00:34:40;100531.38;;;7.26;100.00
22550;BME280;11441;57.164;-2.120;2023-02-24T00:37:07;100548.16;;;7.24;100.00
22550;BME280;11441;57.164;-2.120;2023-02-24T00:39:36;100539.84;;;7.33;100.00
22550;BME280;11441;57.164;-2.120;2023-02-24T00:42:06;100548.03;;;7.54;100.00
22550;BME280;11441;57.164;-2.120;2023-02-24T00:44:43;100545.66;;;7.52;100.00
22550;BME280;11441;57.164;-2.120;2023-02-24T00:47:11;100541.66;;;7.62;100.00
22550;BME280;11441;57.164;-2.120;2023-02-24T00:49:39;100537.69;;;7.60;100.00
22550;BME280;11441;57.164;-2.120;2023-02-24T00:52:18;100548.50;;;7.44;100.00
22550;BME280;11441;57.164;-2.120;2023-02-24T00:54:48;100538.22;;;7.53;100.00
22550;BME280;11441;57.164;-2.120;2023-02-24T00:57:16;100538.09;;;7.49;100.00
22550;BME280;11441;57.164;-2.120;2023-02-24T00:59:48;100544.25;;;7.46;100.00
22550;BME280;11441;57.164;-2.120;2023-02-24T01:02:18;100531.75;;;7.58;100.00
22550;BME280;11441;57.164;-2.120;2023-02-24T01:04:45;100535.69;;;7.48;100.00
22550;BME280;11441;57.164;-2.120;2023-02-24T01:07:12;100526.47;;;7.52;100.00
22550;BME280;11441;57.164;-2.120;2023-02-24T01:09:41;100517.66;;;7.47;100.00
22550;BME280;11441;57.164;-2.120;2023-02-24T01:12:12;100532.75;;;7.53;100.00
22550;BME280;11441;57.164;-2.120;2023-02-24T01:14:57;100540.72;;;7.46;100.00
22550;BME280;11441;57.164;-2.120;2023-02-24T01:17:24;100534.38;;;7.33;100.00
22550;BME280;11441;57.164;-2.120;2023-02-24T01:19:51;100548.03;;;7.54;100.00
22550;BME280;11441;57.164;-2.120;2023-02-24T01:22:20;100544.16;;;7.55;100.00
22550;BME280;11441;57.164;-2.120;2023-02-24T01:24:48;100543.78;;;7.44;100.00
22550;BME280;11441;57.164;-2.120;2023-02-24T01:27:17;100543.72;;;7.53;100.00
22550;BME280;11441;57.164;-2.120;2023-02-24T01:29:46;100550.03;;;7.32;100.00
22550;BME280;11441;57.164;-2.120;2023-02-24T01:32:15;100552.81;;;7.45;100.00
22550;BME280;11441;57.164;-2.120;2023-02-24T01:34:43;100547.66;;;7.43;100.00
22550;BME280;11441;57.164;-2.120;2023-02-24T01:37:10;100551.69;;;7.46;100.00
22550;BME280;11441;57.164;-2.120;2023-02-24T01:39:43;100538.78;;;7.46;100.00
22550;BME280;11441;57.164;-2.120;2023-02-24T01:42:13;100540.69;;;7.33;100.00
22550;BME280;11441;57.164;-2.120;2023-02-24T01:47:09;100547.94;;;7.29;100.00
22550;BME280;11441;57.164;-2.120;2023-02-24T01:49:43;100549.44;;;7.27;100.00
22550;BME280;11441;57.164;-2.120;2023-02-24T01:55:06;100563.72;;;7.32;100.00
22550;BME280;11441;57.164;-2.120;2023-02-24T01:57:53;100562.88;;;7.20;100.00
22550;BME280;11441;57.164;-2.120;2023-02-24T02:00:39;100566.94;;;7.13;100.00
22550;BME280;11441;57.164;-2.120;2023-02-24T02:03:31;100569.56;;;7.10;100.00
22550;BME280;11441;57.164;-2.120;2023-02-24T02:06:05;100566.66;;;7.27;100.00
22550;BME280;11441;57.164;-2.120;2023-02-24T02:08:35;100571.88;;;7.20;100.00
22550;BME280;11441;57.164;-2.120;2023-02-24T02:11:07;100553.84;;;7.19;100.00
22550;BME280;11441;57.164;-2.120;2023-02-24T02:13:53;100573.09;;;7.10;100.00
22550;BME280;11441;57.164;-2.120;2023-02-24T02:24:41;100573.97;;;7.02;100.00
22550;BME280;11441;57.164;-2.120;2023-02-24T02:33:11;100555.66;;;6.94;100.00
22550;BME280;11441;57.164;-2.120;2023-02-24T02:41:08;100563.22;;;6.97;100.00
22550;BME280;11441;57.164;-2.120;2023-02-24T02:43:50;100568.50;;;6.81;100.00
22550;BME280;11441;57.164;-2.120;2023-02-24T02:46:32;100568.97;;;6.83;100.00
22550;BME280;11441;57.164;-2.120;2023-02-24T02:49:05;100562.81;;;6.86;100.00
22550;BME280;11441;57.164;-2.120;2023-02-24T02:51:41;100565.94;;;6.76;100.00
22550;BME280;11441;57.164;-2.120;2023-02-24T02:54:12;100569.16;;;6.78;100.00
22550;BME280;11441;57.164;-2.120;2023-02-24T02:56:49;100565.69;;;6.60;100.00
22550;BME280;11441;57.164;-2.120;2023-02-24T02:59:21;100591.56;;;6.71;100.00
22550;BME280;11441;57.164;-2.120;2023-02-24T03:01:51;100579.81;;;6.71;100.00
22550;BME280;11441;57.164;-2.120;2023-02-24T03:04:22;100578.47;;;6.77;100.00
22550;BME280;11441;57.164;-2.120;2023-02-24T03:06:56;100576.56;;;6.77;100.00
22550;BME280;11441;57.164;-2.120;2023-02-24T03:09:31;100579.72;;;6.88;100.00
22550;BME280;11441;57.164;-2.120;2023-02-24T03:12:04;100566.53;;;6.82;100.00
22550;BME280;11441;57.164;-2.120;2023-02-24T03:14:37;100576.97;;;6.88;100.00
22550;BME280;11441;57.164;-2.120;2023-02-24T03:17:10;100571.41;;;6.76;100.00
22550;BME280;11441;57.164;-2.120;2023-02-24T03:19:40;100583.53;;;6.66;100.00
22550;BME280;11441;57.164;-2.120;2023-02-24T03:24:40;100578.94;;;6.79;100.00
22550;BME280;11441;57.164;-2.120;2023-02-24T03:27:22;100582.22;;;6.72;100.00
22550;BME280;11441;57.164;-2.120;2023-02-24T03:30:11;100583.97;;;6.77;100.00
22550;BME280;11441;57.164;-2.120;2023-02-24T03:35:40;100602.09;;;6.60;100.00
22550;BME280;11441;57.164;-2.120;2023-02-24T03:38:11;100589.81;;;6.67;100.00
22550;BME280;11441;57.164;-2.120;2023-02-24T03:40:40;100598.50;;;6.69;100.00
22550;BME280;11441;57.164;-2.120;2023-02-24T03:43:31;100596.50;;;6.57;100.00
22550;BME280;11441;57.164;-2.120;2023-02-24T03:46:03;100606.56;;;6.65;100.00
22550;BME280;11441;57.164;-2.120;2023-02-24T03:48:31;100611.38;;;6.68;100.00
22550;BME280;11441;57.164;-2.120;2023-02-24T03:51:03;100605.97;;;6.59;100.00
22550;BME280;11441;57.164;-2.120;2023-02-24T03:57:00;100613.31;;;6.68;100.00
22550;BME280;11441;57.164;-2.120;2023-02-24T03:59:43;100604.84;;;6.60;100.00
22550;BME280;11441;57.164;-2.120;2023-02-24T04:02:20;100601.53;;;6.46;100.00
22550;BME280;11441;57.164;-2.120;2023-02-24T04:07:52;100604.28;;;6.46;100.00
22550;BME280;11441;57.164;-2.120;2023-02-24T04:10:51;100613.59;;;6.45;100.00
22550;BME280;11441;57.164;-2.120;2023-02-24T04:13:51;100619.22;;;6.49;100.00
22550;BME280;11441;57.164;-2.120;2023-02-24T04:16:41;100617.13;;;6.46;100.00
22550;BME280;11441;57.164;-2.120;2023-02-24T04:19:14;100615.06;;;6.34;100.00
22550;BME280;11441;57.164;-2.120;2023-02-24T04:21:45;100616.28;;;6.54;100.00
22550;BME280;11441;57.164;-2.120;2023-02-24T04:24:39;100614.88;;;6.48;100.00
22550;BME280;11441;57.164;-2.120;2023-02-24T04:27:26;100615.91;;;6.34;100.00
22550;BME280;11441;57.164;-2.120;2023-02-24T04:30:12;100617.59;;;6.48;100.00
22550;BME280;11441;57.164;-2.120;2023-02-24T04:32:40;100617.13;;;6.46;100.00
22550;BME280;11441;57.164;-2.120;2023-02-24T04:35:13;100624.41;;;6.41;100.00
22550;BME280;11441;57.164;-2.120;2023-02-24T04:37:45;100624.28;;;6.29;100.00
22550;BME280;11441;57.164;-2.120;2023-02-24T04:40:13;100621.22;;;6.31;100.00
22550;BME280;11441;57.164;-2.120;2023-02-24T04:42:44;100640.50;;;6.43;100.00
22550;BME280;11441;57.164;-2.120;2023-02-24T04:45:15;100631.00;;;6.40;100.00
22550;BME280;11441;57.164;-2.120;2023-02-24T04:47:44;100626.16;;;6.46;100.00
22550;BME280;11441;57.164;-2.120;2023-02-24T04:50:18;100616.66;;;6.44;100.00
22550;BME280;11441;57.164;-2.120;2023-02-24T04:55:21;100631.78;;;6.50;100.00
22550;BME280;11441;57.164;-2.120;2023-02-24T04:57:51;100630.47;;;6.47;100.00
22550;BME280;11441;57.164;-2.120;2023-02-24T05:00:18;100628.91;;;6.46;100.00
22550;BME280;11441;57.164;-2.120;2023-02-24T05:02:54;100630.78;;;6.54;100.00
22550;BME280;11441;57.164;-2.120;2023-02-24T05:05:23;100634.66;;;6.53;100.00
22550;BME280;11441;57.164;-2.120;2023-02-24T05:07:55;100641.94;;;6.40;100.00
22550;BME280;11441;57.164;-2.120;2023-02-24T05:10:23;100630.13;;;6.57;100.00
22550;BME280;11441;57.164;-2.120;2023-02-24T05:12:54;100641.59;;;6.42;100.00
22550;BME280;11441;57.164;-2.120;2023-02-24T05:15:43;100637.75;;;6.43;100.00
22550;BME280;11441;57.164;-2.120;2023-02-24T05:18:12;100643.25;;;6.34;100.00
22550;BME280;11441;57.164;-2.120;2023-02-24T05:20:42;100643.41;;;6.38;100.00
22550;BME280;11441;57.164;-2.120;2023-02-24T05:23:34;100650.00;;;6.37;100.00
22550;BME280;11441;57.164;-2.120;2023-02-24T05:26:07;100663.66;;;6.37;100.00
22550;BME280;11441;57.164;-2.120;2023-02-24T05:28:39;100657.41;;;6.36;100.00
22550;BME280;11441;57.164;-2.120;2023-02-24T05:31:09;100664.47;;;6.46;100.00
22550;BME280;11441;57.164;-2.120;2023-02-24T05:33:38;100658.84;;;6.34;100.00
22550;BME280;11441;57.164;-2.120;2023-02-24T05:36:07;100663.16;;;6.44;100.00
22550;BME280;11441;57.164;-2.120;2023-02-24T05:38:35;100664.66;;;6.41;100.00
22550;BME280;11441;57.164;-2.120;2023-02-24T05:41:23;100665.59;;;6.45;100.00
22550;BME280;11441;57.164;-2.120;2023-02-24T05:43:58;100672.47;;;6.51;100.00
22550;BME280;11441;57.164;-2.120;2023-02-24T05:46:30;100673.91;;;6.57;100.00
22550;BME280;11441;57.164;-2.120;2023-02-24T05:49:00;100676.16;;;6.55;100.00
22550;BME280;11441;57.164;-2.120;2023-02-24T05:51:32;100680.44;;;6.27;100.00
22550;BME280;11441;57.164;-2.120;2023-02-24T05:54:06;100678.00;;;6.34;100.00
22550;BME280;11441;57.164;-2.120;2023-02-24T05:56:35;100678.63;;;6.48;100.00
22550;BME280;11441;57.164;-2.120;2023-02-24T05:59:04;100679.88;;;6.51;100.00
22550;BME280;11441;57.164;-2.120;2023-02-24T06:01:34;100688.56;;;6.53;100.00
22550;BME280;11441;57.164;-2.120;2023-02-24T06:04:04;100697.47;;;6.41;100.00
22550;BME280;11441;57.164;-2.120;2023-02-24T06:06:36;100696.00;;;6.44;100.00
22550;BME280;11441;57.164;-2.120;2023-02-24T06:09:11;100694.75;;;6.32;100.00
22550;BME280;11441;57.164;-2.120;2023-02-24T06:11:40;100711.97;;;6.33;100.00
22550;BME280;11441;57.164;-2.120;2023-02-24T06:14:09;100711.00;;;6.29;100.00
22550;BME280;11441;57.164;-2.120;2023-02-24T06:16:37;100701.53;;;6.17;100.00
22550;BME280;11441;57.164;-2.120;2023-02-24T06:19:22;100712.16;;;6.19;100.00
22550;BME280;11441;57.164;-2.120;2023-02-24T06:21:50;100711.38;;;6.18;100.00
22550;BME280;11441;57.164;-2.120;2023-02-24T06:24:18;100715.06;;;6.22;100.00
22550;BME280;11441;57.164;-2.120;2023-02-24T06:27:03;100716.50;;;6.02;100.00
22550;BME280;11441;57.164;-2.120;2023-02-24T06:29:36;100721.34;;;5.97;100.00
22550;BME280;11441;57.164;-2.120;2023-02-24T06:32:03;100718.28;;;6.16;100.00
22550;BME280;11441;57.164;-2.120;2023-02-24T06:34:37;100717.03;;;6.04;100.00
22550;BME280;11441;57.164;-2.120;2023-02-24T06:37:05;100717.19;;;6.08;100.00
22550;BME280;11441;57.164;-2.120;2023-02-24T06:39:50;100709.75;;;6.17;100.00
22550;BME280;11441;57.164;-2.120;2023-02-24T06:42:17;100721.50;;;6.00;100.00
22550;BME280;11441;57.164;-2.120;2023-02-24T06:44:45;100725.69;;;5.89;100.00
22550;BME280;11441;57.164;-2.120;2023-02-24T06:47:13;100724.09;;;5.97;100.00
22550;BME280;11441;57.164;-2.120;2023-02-24T06:49:41;100730.34;;;5.97;100.00
22550;BME280;11441;57.164;-2.120;2023-02-24T06:52:09;100714.44;;;5.99;100.00
22550;BME280;11441;57.164;-2.120;2023-02-24T06:54:37;100722.47;;;5.87;100.00
22550;BME280;11441;57.164;-2.120;2023-02-24T06:57:03;100724.09;;;5.97;100.00
22550;BME280;11441;57.164;-2.120;2023-02-24T06:59:31;100726.97;;;6.00;100.00
22550;BME280;11441;57.164;-2.120;2023-02-24T07:01:59;100732.56;;;5.95;100.00
22550;BME280;11441;57.164;-2.120;2023-02-24T07:04:28;100733.56;;;5.91;100.00
22550;BME280;11441;57.164;-2.120;2023-02-24T07:07:13;100739.50;;;5.93;100.00
22550;BME280;11441;57.164;-2.120;2023-02-24T07:09:42;100735.16;;;5.92;100.00
22550;BME280;11441;57.164;-2.120;2023-02-24T07:15:16;100737.75;;;5.97;100.00
22550;BME280;11441;57.164;-2.120;2023-02-24T07:17:43;100757.03;;;5.83;100.00
22550;BME280;11441;57.164;-2.120;2023-02-24T07:20:12;100751.41;;;5.88;100.00
22550;BME280;11441;57.164;-2.120;2023-02-24T07:22:51;100754.63;;;5.99;100.00
22550;BME280;11441;57.164;-2.120;2023-02-24T07:25:17;100767.84;;;5.97;100.00
22550;BME280;11441;57.164;-2.120;2023-02-24T07:27:59;100765.41;;;6.04;100.00
22550;BME280;11441;57.164;-2.120;2023-02-24T07:30:28;100769.13;;;6.08;100.00
22550;BME280;11441;57.164;-2.120;2023-02-24T07:32:56;100775.25;;;5.96;100.00
22550;BME280;11441;57.164;-2.120;2023-02-24T07:35:22;100773.91;;;5.94;100.00
22550;BME280;11441;57.164;-2.120;2023-02-24T07:37:50;100775.25;;;5.96;100.00
22550;BME280;11441;57.164;-2.120;2023-02-24T07:40:17;100785.53;;;5.99;100.00
22550;BME280;11441;57.164;-2.120;2023-02-24T07:42:47;100789.84;;;5.92;100.00
22550;BME280;11441;57.164;-2.120;2023-02-24T07:45:14;100783.72;;;5.95;100.00
22550;BME280;11441;57.164;-2.120;2023-02-24T07:47:41;100792.91;;;6.16;100.00
22550;BME280;11441;57.164;-2.120;2023-02-24T07:50:09;100787.94;;;6.01;100.00
22550;BME280;11441;57.164;-2.120;2023-02-24T07:52:39;100790.16;;;5.90;100.00
22550;BME280;11441;57.164;-2.120;2023-02-24T07:55:07;100789.53;;;6.02;100.00
22550;BME280;11441;57.164;-2.120;2023-02-24T07:57:35;100799.66;;;5.84;100.00
22550;BME280;11441;57.164;-2.120;2023-02-24T08:00:04;100802.53;;;5.88;100.00
22550;BME280;11441;57.164;-2.120;2023-02-24T08:02:48;100817.66;;;5.94;100.00
22550;BME280;11441;57.164;-2.120;2023-02-24T08:05:16;100818.00;;;5.92;100.00
22550;BME280;11441;57.164;-2.120;2023-02-24T08:07:46;100808.84;;;5.97;100.00
22550;BME280;11441;57.164;-2.120;2023-02-24T08:10:18;100815.09;;;5.97;100.00
22550;BME280;11441;57.164;-2.120;2023-02-24T08:12:54;100817.16;;;5.92;100.00
22550;BME280;11441;57.164;-2.120;2023-02-24T08:15:25;100820.25;;;5.99;100.00
22550;BME280;11441;57.164;-2.120;2023-02-24T08:18:00;100810.25;;;5.85;100.00
22550;BME280;11441;57.164;-2.120;2023-02-24T08:20:29;100819.78;;;6.06;100.00
22550;BME280;11441;57.164;-2.120;2023-02-24T08:23:17;100823.28;;;5.89;100.00
22550;BME280;11441;57.164;-2.120;2023-02-24T08:25:44;100822.63;;;5.92;100.00
22550;BME280;11441;57.164;-2.120;2023-02-24T08:28:11;100828.72;;;5.89;100.00
22550;BME280;11441;57.164;-2.120;2023-02-24T08:30:42;100821.84;;;5.82;100.00
22550;BME280;11441;57.164;-2.120;2023-02-24T08:33:18;100833.41;;;5.88;100.00
22550;BME280;11441;57.164;-2.120;2023-02-24T08:35:53;100828.97;;;6.10;100.00
22550;BME280;11441;57.164;-2.120;2023-02-24T08:38:45;100843.88;;;5.95;100.00
22550;BME280;11441;57.164;-2.120;2023-02-24T08:41:18;100844.22;;;6.11;100.00
22550;BME280;11441;57.164;-2.120;2023-02-24T08:43:52;100839.41;;;5.99;100.00
22550;BME280;11441;57.164;-2.120;2023-02-24T08:46:21;100842.28;;;6.11;100.00
22550;BME280;11441;57.164;-2.120;2023-02-24T08:48:56;100858.38;;;6.13;100.00
22550;BME280;11441;57.164;-2.120;2023-02-24T08:51:34;100856.63;;;5.99;100.00
22550;BME280;11441;57.164;-2.120;2023-02-24T08:54:04;100864.94;;;5.85;100.00
22550;BME280;11441;57.164;-2.120;2023-02-24T08:56:37;100866.75;;;6.08;100.00
22550;BME280;11441;57.164;-2.120;2023-02-24T08:59:13;100864.69;;;6.13;100.00
22550;BME280;11441;57.164;-2.120;2023-02-24T09:02:12;100874.25;;;5.84;100.00
22550;BME280;11441;57.164;-2.120;2023-02-24T09:07:26;100882.50;;;6.02;100.00
22550;BME280;11441;57.164;-2.120;2023-02-24T09:09:55;100875.72;;;5.91;100.00
22550;BME280;11441;57.164;-2.120;2023-02-24T09:12:24;100871.56;;;6.02;100.00
22550;BME280;11441;57.164;-2.120;2023-02-24T09:15:02;100877.47;;;5.95;100.00
22550;BME280;11441;57.164;-2.120;2023-02-24T09:17:34;100874.63;;;6.00;100.00
22550;BME280;11441;57.164;-2.120;2023-02-24T09:22:56;100885.25;;;6.11;100.00
22550;BME280;11441;57.164;-2.120;2023-02-24T09:25:24;100882.03;;;6.09;100.00
22550;BME280;11441;57.164;-2.120;2023-02-24T09:28:13;100884.78;;;6.09;100.00
22550;BME280;11441;57.164;-2.120;2023-02-24T09:30:57;100886.06;;;6.11;100.00
22550;BME280;11441;57.164;-2.120;2023-02-24T09:35:59;100900.41;;;6.34;100.00
22550;BME280;11441;57.164;-2.120;2023-02-24T09:38:36;100895.09;;;6.12;100.00
22550;BME280;11441;57.164;-2.120;2023-02-24T09:41:36;100898.94;;;6.28;100.00
22550;BME280;11441;57.164;-2.120;2023-02-24T09:47:24;100899.09;;;6.06;100.00
22550;BME280;11441;57.164;-2.120;2023-02-24T09:53:16;100889.47;;;6.26;100.00
22550;BME280;11441;57.164;-2.120;2023-02-24T09:55:54;100898.63;;;6.38;100.00
22550;BME280;11441;57.164;-2.120;2023-02-24T10:04:16;100902.47;;;6.29;100.00
22550;BME280;11441;57.164;-2.120;2023-02-24T10:09:56;100901.22;;;6.44;100.00
22550;BME280;11441;57.164;-2.120;2023-02-24T10:12:51;100912.63;;;6.46;100.00
22550;BME280;11441;57.164;-2.120;2023-02-24T10:15:26;100907.78;;;6.42;100.00
22550;BME280;11441;57.164;-2.120;2023-02-24T10:23:43;100923.66;;;5.97;100.00
22550;BME280;11441;57.164;-2.120;2023-02-24T10:26:17;100907.38;;;5.83;100.00
22550;BME280;11441;57.164;-2.120;2023-02-24T10:29:23;100905.78;;;5.91;100.00
22550;BME280;11441;57.164;-2.120;2023-02-24T10:32:06;100920.72;;;5.84;100.00
22550;BME280;11441;57.164;-2.120;2023-02-24T10:34:43;100913.91;;;6.04;100.00
22550;BME280;11441;57.164;-2.120;2023-02-24T10:37:16;100921.44;;;6.08;100.00
22550;BME280;11441;57.164;-2.120;2023-02-24T10:40:00;100926.13;;;6.25;100.00
22550;BME280;11441;57.164;-2.120;2023-02-24T10:42:37;100923.66;;;5.97;100.00
22550;BME280;11441;57.164;-2.120;2023-02-24T10:47:55;100911.97;;;6.05;100.00
22550;BME280;11441;57.164;-2.120;2023-02-24T10:52:54;100908.59;;;6.08;100.00
22550;BME280;11441;57.164;-2.120;2023-02-24T10:55:39;100920.81;;;6.19;100.00
22550;BME280;11441;57.164;-2.120;2023-02-24T10:58:14;100907.94;;;6.37;100.00
22550;BME280;11441;57.164;-2.120;2023-02-24T11:00:55;100923.72;;;6.32;100.00
22550;BME280;11441;57.164;-2.120;2023-02-24T11:03:54;100927.28;;;6.50;100.00
22550;BME280;11441;57.164;-2.120;2023-02-24T11:06:37;100929.03;;;6.54;100.00
22550;BME280;11441;57.164;-2.120;2023-02-24T11:12:11;100935.50;;;6.32;100.00
22550;BME280;11441;57.164;-2.120;2023-02-24T11:15:01;100937.72;;;6.21;100.00
22550;BME280;11441;57.164;-2.120;2023-02-24T11:17:57;100946.44;;;6.41;100.00
22550;BME280;11441;57.164;-2.120;2023-02-24T11:26:34;100943.34;;;6.34;100.00
22550;BME280;11441;57.164;-2.120;2023-02-24T11:35:08;100960.13;;;6.32;100.00
22550;BME280;11441;57.164;-2.120;2023-02-24T11:40:17;100953.84;;;6.67;100.00
22550;BME280;11441;57.164;-2.120;2023-02-24T11:42:56;100962.72;;;6.64;100.00
22550;BME280;11441;57.164;-2.120;2023-02-24T11:45:46;100966.22;;;6.38;100.00
22550;BME280;11441;57.164;-2.120;2023-02-24T11:48:25;100988.72;;;6.17;100.00
22550;BME280;11441;57.164;-2.120;2023-02-24T11:51:10;100969.16;;;5.93;100.00
22550;BME280;11441;57.164;-2.120;2023-02-24T11:53:51;100974.06;;;6.13;100.00
22550;BME280;11441;57.164;-2.120;2023-02-24T11:56:29;100969.56;;;6.17;100.00
22550;BME280;11441;57.164;-2.120;2023-02-24T11:59:05;100977.75;;;6.09;100.00
22550;BME280;11441;57.164;-2.120;2023-02-24T12:04:31;100981.50;;;5.50;100.00
22550;BME280;11441;57.164;-2.120;2023-02-24T12:07:31;100979.31;;;5.61;100.00
22550;BME280;11441;57.164;-2.120;2023-02-24T12:13:16;100971.75;;;5.58;100.00
22550;BME280;11441;57.164;-2.120;2023-02-24T12:15:55;100974.09;;;5.82;100.00
22550;BME280;11441;57.164;-2.120;2023-02-24T12:18:31;100965.47;;;5.97;100.00
22550;BME280;11441;57.164;-2.120;2023-02-24T12:21:10;100969.22;;;6.01;100.00
22550;BME280;11441;57.164;-2.120;2023-02-24T12:23:58;100966.00;;;5.99;100.00
22550;BME280;11441;57.164;-2.120;2023-02-24T12:32:22;100983.94;;;6.40;100.00
22550;BME280;11441;57.164;-2.120;2023-02-24T12:42:36;100981.03;;;6.37;100.00
22550;BME280;11441;57.164;-2.120;2023-02-24T12:47:57;101034.56;;;5.80;100.00
22550;BME280;11441;57.164;-2.120;2023-02-24T12:53:22;100999.97;;;5.44;100.00
22550;BME280;11441;57.164;-2.120;2023-02-24T12:56:20;101014.75;;;5.43;100.00
22550;BME280;11441;57.164;-2.120;2023-02-24T12:58:51;101001.09;;;5.43;100.00
22550;BME280;11441;57.164;-2.120;2023-02-24T13:01:44;101002.09;;;5.88;100.00
22550;BME280;11441;57.164;-2.120;2023-02-24T13:12:50;100996.00;;;5.91;100.00
22550;BME280;11441;57.164;-2.120;2023-02-24T13:15:23;101003.81;;;6.06;100.00
22550;BME280;11441;57.164;-2.120;2023-02-24T13:17:52;100980.81;;;6.16;100.00
22550;BME280;11441;57.164;-2.120;2023-02-24T13:20:34;100989.69;;;6.21;100.00
22550;BME280;11441;57.164;-2.120;2023-02-24T13:23:16;100999.59;;;6.00;100.00
22550;BME280;11441;57.164;-2.120;2023-02-24T13:25:51;101006.28;;;5.94;100.00
22550;BME280;11441;57.164;-2.120;2023-02-24T13:28:30;101005.31;;;5.90;100.00
22550;BME280;11441;57.164;-2.120;2023-02-24T13:31:01;101006.34;;;5.71;100.00
22550;BME280;11441;57.164;-2.120;2023-02-24T13:33:48;101005.38;;;5.67;100.00
22550;BME280;11441;57.164;-2.120;2023-02-24T13:36:22;100998.59;;;5.56;100.00
22550;BME280;11441;57.164;-2.120;2023-02-24T13:39:19;101000.94;;;5.80;100.00
22550;BME280;11441;57.164;-2.120;2023-02-24T13:41:47;100990.50;;;5.82;100.00
22550;BME280;11441;57.164;-2.120;2023-02-24T13:44:32;101003.16;;;6.09;100.00
22550;BME280;11441;57.164;-2.120;2023-02-24T13:50:04;100996.00;;;6.39;100.00
22550;BME280;11441;57.164;-2.120;2023-02-24T13:53:04;101006.59;;;6.23;100.00
22550;BME280;11441;57.164;-2.120;2023-02-24T13:55:57;100996.03;;;6.48;100.00
22550;BME280;11441;57.164;-2.120;2023-02-24T14:01:17;101007.03;;;5.77;100.00
22550;BME280;11441;57.164;-2.120;2023-02-24T14:04:34;100996.47;;;5.53;100.00
22550;BME280;11441;57.164;-2.120;2023-02-24T14:06:36;101009.34;;;5.52;100.00
22550;BME280;11441;57.164;-2.120;2023-02-24T14:09:04;101001.81;;;5.58;100.00
22550;BME280;11441;57.164;-2.120;2023-02-24T14:11:35;101001.13;;;5.83;100.00
22550;BME280;11441;57.164;-2.120;2023-02-24T14:14:03;100994.88;;;5.92;100.00
22550;BME280;11441;57.164;-2.120;2023-02-24T14:16:34;100996.16;;;5.85;100.00
22550;BME280;11441;57.164;-2.120;2023-02-24T14:19:10;101000.22;;;5.65;100.00
22550;BME280;11441;57.164;-2.120;2023-02-24T14:21:37;101014.56;;;5.71;100.00
22550;BME280;11441;57.164;-2.120;2023-02-24T14:24:11;101001.75;;;5.80;100.00
22550;BME280;11441;57.164;-2.120;2023-02-24T14:26:50;101001.75;;;5.80;100.00
22550;BME280;11441;57.164;-2.120;2023-02-24T14:29:36;101013.94;;;5.74;100.00
22550;BME280;11441;57.164;-2.120;2023-02-24T14:32:23;101001.75;;;5.80;100.00
22550;BME280;11441;57.164;-2.120;2023-02-24T14:34:51;101009.84;;;5.94;100.00
22550;BME280;11441;57.164;-2.120;2023-02-24T14:37:28;101018.03;;;5.85;100.00
22550;BME280;11441;57.164;-2.120;2023-02-24T14:39:58;101018.06;;;5.94;100.00
22550;BME280;11441;57.164;-2.120;2023-02-24T14:42:26;101007.38;;;6.15;100.00
22550;BME280;11441;57.164;-2.120;2023-02-24T14:44:55;101000.72;;;5.99;100.00
22550;BME280;11441;57.164;-2.120;2023-02-24T14:47:25;101030.78;;;5.99;100.00
22550;BME280;11441;57.164;-2.120;2023-02-24T14:50:16;101015.59;;;5.84;100.00
22550;BME280;11441;57.164;-2.120;2023-02-24T14:52:47;101020.81;;;5.63;100.00
22550;BME280;11441;57.164;-2.120;2023-02-24T14:55:22;101016.09;;;5.55;100.00
22550;BME280;11441;57.164;-2.120;2023-02-24T15:00:25;101034.63;;;5.35;100.00
22550;BME280;11441;57.164;-2.120;2023-02-24T15:03:03;101043.72;;;5.53;100.00
22550;BME280;11441;57.164;-2.120;2023-02-24T15:05:32;101028.78;;;5.51;100.00
22550;BME280;11441;57.164;-2.120;2023-02-24T15:08:00;101024.53;;;5.44;100.00
22550;BME280;11441;57.164;-2.120;2023-02-24T15:10:29;101042.69;;;5.40;100.00
22550;BME280;11441;57.164;-2.120;2023-02-24T15:13:09;101050.94;;;5.49;100.00
22550;BME280;11441;57.164;-2.120;2023-02-24T15:15:37;101027.59;;;5.74;100.00
22550;BME280;11441;57.164;-2.120;2023-02-24T15:18:26;101032.34;;;5.60;100.00
22550;BME280;11441;57.164;-2.120;2023-02-24T15:21:05;101031.03;;;5.57;100.00
22550;BME280;11441;57.164;-2.120;2023-02-24T15:23:37;101032.38;;;5.37;100.00
22550;BME280;11441;57.164;-2.120;2023-02-24T15:26:33;101025.56;;;5.57;100.00
22550;BME280;11441;57.164;-2.120;2023-02-24T15:29:11;101027.50;;;5.57;100.00
22550;BME280;11441;57.164;-2.120;2023-02-24T15:31:38;101035.13;;;5.37;100.00
22550;BME280;11441;57.164;-2.120;2023-02-24T15:34:16;101073.16;;;5.34;100.00
22550;BME280;11441;57.164;-2.120;2023-02-24T15:36:45;101062.78;;;5.22;100.00